sensor_id;sensor_type;location;lat;lon;timestamp;P1;durP1;ratioP1;P2;durP2;ratioP2
79054;SDS011;68452;47.186;-1.528;2023-04-15T11:19:36;4.85;;;0.60;;
79054;SDS011;68452;47.186;-1.528;2023-04-15T11:22:07;4.15;;;0.40;;
79054;SDS011;68452;47.186;-1.528;2023-04-15T11:24:33;4.78;;;0.60;;
79054;SDS011;68452;47.186;-1.528;2023-04-15T11:27:00;5.20;;;0.30;;
79054;SDS011;68452;47.186;-1.528;2023-04-15T11:29:30;4.20;;;0.63;;
79054;SDS011;68452;47.186;-1.528;2023-04-15T11:32:07;4.43;;;0.32;;
79054;SDS011;68452;47.186;-1.528;2023-04-15T11:34:34;4.72;;;0.50;;
79054;SDS011;68452;47.186;-1.528;2023-04-15T11:37:03;8.20;;;0.50;;
79054;SDS011;68452;47.186;-1.528;2023-04-15T11:39:30;4.07;;;0.30;;
79054;SDS011;68452;47.186;-1.528;2023-04-15T11:41:56;3.78;;;0.40;;
79054;SDS011;68452;47.186;-1.528;2023-04-15T11:44:22;5.90;;;0.40;;
79054;SDS011;68452;47.186;-1.528;2023-04-15T11:46:48;4.83;;;0.70;;
79054;SDS011;68452;47.186;-1.528;2023-04-15T11:49:29;3.70;;;0.33;;
79054;SDS011;68452;47.186;-1.528;2023-04-15T11:51:57;5.70;;;0.50;;
79054;SDS011;68452;47.186;-1.528;2023-04-15T11:54:24;11.52;;;0.77;;
79054;SDS011;68452;47.186;-1.528;2023-04-15T11:56:50;4.07;;;0.52;;
79054;SDS011;68452;47.186;-1.528;2023-04-15T11:59:17;2.88;;;0.20;;
79054;SDS011;68452;47.186;-1.528;2023-04-15T12:01:43;3.80;;;0.40;;
79054;SDS011;68452;47.186;-1.528;2023-04-15T12:04:11;5.80;;;0.50;;
79054;SDS011;68452;47.186;-1.528;2023-04-15T12:06:37;2.90;;;0.30;;
79054;SDS011;68452;47.186;-1.528;2023-04-15T12:09:07;5.73;;;0.57;;
79054;SDS011;68452;47.186;-1.528;2023-04-15T12:11:41;3.63;;;0.30;;
79054;SDS011;68452;47.186;-1.528;2023-04-15T12:16:54;3.38;;;0.52;;
79054;SDS011;68452;47.186;-1.528;2023-04-15T12:22:02;3.50;;;0.43;;
79054;SDS011;68452;47.186;-1.528;2023-04-15T12:24:40;4.80;;;0.50;;
79054;SDS011;68452;47.186;-1.528;2023-04-15T12:27:13;2.40;;;0.30;;
79054;SDS011;68452;47.186;-1.528;2023-04-15T12:29:42;5.22;;;0.65;;
79054;SDS011;68452;47.186;-1.528;2023-04-15T12:32:09;3.22;;;0.28;;
79054;SDS011;68452;47.186;-1.528;2023-04-15T12:34:36;2.73;;;0.20;;
79054;SDS011;68452;47.186;-1.528;2023-04-15T12:37:06;3.22;;;0.20;;
79054;SDS011;68452;47.186;-1.528;2023-04-15T12:39:39;3.95;;;0.40;;
79054;SDS011;68452;47.186;-1.528;2023-04-15T12:42:06;5.25;;;0.45;;
79054;SDS011;68452;47.186;-1.528;2023-04-15T12:44:33;3.95;;;0.30;;
79054;SDS011;68452;47.186;-1.528;2023-04-15T12:47:00;2.37;;;0.20;;
79054;SDS011;68452;47.186;-1.528;2023-04-15T12:49:26;2.47;;;0.43;;
79054;SDS011;68452;47.186;-1.528;2023-04-15T12:51:53;4.65;;;0.30;;
79054;SDS011;68452;47.186;-1.528;2023-04-15T12:54:20;2.83;;;0.32;;
79054;SDS011;68452;47.186;-1.528;2023-04-15T12:56:47;2.95;;;0.30;;
79054;SDS011;68452;47.186;-1.528;2023-04-15T12:59:14;2.50;;;0.33;;
79054;SDS011;68452;47.186;-1.528;2023-04-15T13:01:42;4.57;;;0.40;;
79054;SDS011;68452;47.186;-1.528;2023-04-15T13:04:08;3.03;;;0.30;;
79054;SDS011;68452;47.186;-1.528;2023-04-15T13:06:34;3.05;;;0.20;;
79054;SDS011;68452;47.186;-1.528;2023-04-15T13:09:01;2.08;;;0.30;;
79054;SDS011;68452;47.186;-1.528;2023-04-15T13:11:27;2.27;;;0.30;;
79054;SDS011;68452;47.186;-1.528;2023-04-15T13:13:58;1.38;;;0.30;;
79054;SDS011;68452;47.186;-1.528;2023-04-15T13:16:27;2.95;;;0.40;;
79054;SDS011;68452;47.186;-1.528;2023-04-15T13:18:53;4.38;;;0.45;;
79054;SDS011;68452;47.186;-1.528;2023-04-15T13:21:19;3.45;;;0.60;;
79054;SDS011;68452;47.186;-1.528;2023-04-15T13:23:45;3.37;;;0.40;;
79054;SDS011;68452;47.186;-1.528;2023-04-15T13:26:12;1.88;;;0.30;;
79054;SDS011;68452;47.186;-1.528;2023-04-15T13:28:38;2.53;;;0.30;;
79054;SDS011;68452;47.186;-1.528;2023-04-15T13:31:04;3.60;;;0.40;;
79054;SDS011;68452;47.186;-1.528;2023-04-15T13:33:30;2.65;;;0.43;;
79054;SDS011;68452;47.186;-1.528;2023-04-15T13:35:56;1.58;;;0.50;;
79054;SDS011;68452;47.186;-1.528;2023-04-15T13:38:22;1.63;;;0.40;;
79054;SDS011;68452;47.186;-1.528;2023-04-15T13:40:49;3.50;;;0.40;;
79054;SDS011;68452;47.186;-1.528;2023-04-15T13:43:15;1.88;;;0.30;;
79054;SDS011;68452;47.186;-1.528;2023-04-15T13:45:41;1.67;;;0.43;;
79054;SDS011;68452;47.186;-1.528;2023-04-15T13:48:07;2.53;;;0.28;;
79054;SDS011;68452;47.186;-1.528;2023-04-15T13:50:34;2.53;;;0.40;;
79054;SDS011;68452;47.186;-1.528;2023-04-15T13:53:00;3.15;;;0.47;;
79054;SDS011;68452;47.186;-1.528;2023-04-15T13:55:26;2.22;;;0.40;;
79054;SDS011;68452;47.186;-1.528;2023-04-15T13:57:52;2.75;;;0.40;;
79054;SDS011;68452;47.186;-1.528;2023-04-15T14:00:18;3.45;;;0.40;;
79054;SDS011;68452;47.186;-1.528;2023-04-15T14:02:44;2.20;;;0.40;;
79054;SDS011;68452;47.186;-1.528;2023-04-15T14:05:10;3.22;;;0.50;;
79054;SDS011;68452;47.186;-1.528;2023-04-15T14:07:36;1.58;;;0.40;;
79054;SDS011;68452;47.186;-1.528;2023-04-15T14:10:02;2.87;;;1.10;;
79054;SDS011;68452;47.186;-1.528;2023-04-15T14:12:28;3.92;;;0.95;;
79054;SDS011;68452;47.186;-1.528;2023-04-15T14:14:54;4.32;;;1.15;;
79054;SDS011;68452;47.186;-1.528;2023-04-15T14:17:20;2.22;;;1.10;;
79054;SDS011;68452;47.186;-1.528;2023-04-15T14:19:45;3.97;;;1.50;;
79054;SDS011;68452;47.186;-1.528;2023-04-15T14:22:11;1.90;;;1.23;;
79054;SDS011;68452;47.186;-1.528;2023-04-15T14:24:37;2.92;;;1.25;;
79054;SDS011;68452;47.186;-1.528;2023-04-15T14:27:03;2.57;;;1.87;;
79054;SDS011;68452;47.186;-1.528;2023-04-15T14:29:32;4.32;;;2.33;;
79054;SDS011;68452;47.186;-1.528;2023-04-15T14:31:58;5.13;;;2.10;;
79054;SDS011;68452;47.186;-1.528;2023-04-15T14:34:25;3.97;;;2.40;;
79054;SDS011;68452;47.186;-1.528;2023-04-15T14:36:51;2.53;;;1.80;;
79054;SDS011;68452;47.186;-1.528;2023-04-15T14:39:17;5.00;;;2.30;;
79054;SDS011;68452;47.186;-1.528;2023-04-15T14:41:44;3.50;;;2.72;;
79054;SDS011;68452;47.186;-1.528;2023-04-15T14:44:10;2.97;;;2.00;;
79054;SDS011;68452;47.186;-1.528;2023-04-15T14:46:36;3.67;;;2.67;;
79054;SDS011;68452;47.186;-1.528;2023-04-15T14:49:02;3.50;;;3.20;;
79054;SDS011;68452;47.186;-1.528;2023-04-15T14:51:29;3.72;;;2.65;;
79054;SDS011;68452;47.186;-1.528;2023-04-15T14:53:56;2.80;;;1.23;;
79054;SDS011;68452;47.186;-1.528;2023-04-15T14:56:21;3.10;;;2.67;;
79054;SDS011;68452;47.186;-1.528;2023-04-15T14:58:47;3.45;;;2.17;;
79054;SDS011;68452;47.186;-1.528;2023-04-15T15:01:13;3.10;;;2.65;;
79054;SDS011;68452;47.186;-1.528;2023-04-15T15:03:39;3.42;;;2.30;;
79054;SDS011;68452;47.186;-1.528;2023-04-15T15:06:05;5.03;;;2.97;;
79054;SDS011;68452;47.186;-1.528;2023-04-15T15:08:31;3.50;;;2.90;;
79054;SDS011;68452;47.186;-1.528;2023-04-15T15:10:57;4.47;;;2.67;;
79054;SDS011;68452;47.186;-1.528;2023-04-15T15:13:22;3.70;;;1.93;;
79054;SDS011;68452;47.186;-1.528;2023-04-15T15:15:49;3.65;;;1.00;;
79054;SDS011;68452;47.186;-1.528;2023-04-15T15:18:16;2.03;;;0.80;;
79054;SDS011;68452;47.186;-1.528;2023-04-15T15:20:43;1.90;;;0.60;;
79054;SDS011;68452;47.186;-1.528;2023-04-15T15:23:08;3.90;;;0.90;;
79054;SDS011;68452;47.186;-1.528;2023-04-15T15:25:34;1.92;;;0.73;;
79054;SDS011;68452;47.186;-1.528;2023-04-15T15:28:00;3.08;;;0.68;;
79054;SDS011;68452;47.186;-1.528;2023-04-15T15:30:26;4.00;;;0.60;;
79054;SDS011;68452;47.186;-1.528;2023-04-15T15:32:52;2.78;;;0.60;;
79054;SDS011;68452;47.186;-1.528;2023-04-15T15:35:18;2.42;;;0.70;;
79054;SDS011;68452;47.186;-1.528;2023-04-15T15:37:44;3.57;;;0.47;;
79054;SDS011;68452;47.186;-1.528;2023-04-15T15:40:11;2.83;;;0.60;;
79054;SDS011;68452;47.186;-1.528;2023-04-15T15:42:37;3.33;;;0.50;;
79054;SDS011;68452;47.186;-1.528;2023-04-15T15:45:03;3.35;;;0.40;;
79054;SDS011;68452;47.186;-1.528;2023-04-15T15:47:30;2.42;;;0.40;;
79054;SDS011;68452;47.186;-1.528;2023-04-15T15:49:56;2.87;;;0.40;;
79054;SDS011;68452;47.186;-1.528;2023-04-15T15:52:23;2.88;;;0.32;;
79054;SDS011;68452;47.186;-1.528;2023-04-15T15:54:49;4.32;;;0.50;;
79054;SDS011;68452;47.186;-1.528;2023-04-15T15:57:15;3.42;;;0.30;;
79054;SDS011;68452;47.186;-1.528;2023-04-15T15:59:41;3.50;;;0.50;;
79054;SDS011;68452;47.186;-1.528;2023-04-15T16:02:10;3.10;;;0.30;;
79054;SDS011;68452;47.186;-1.528;2023-04-15T16:04:41;2.58;;;0.40;;
79054;SDS011;68452;47.186;-1.528;2023-04-15T16:07:07;1.80;;;0.30;;
79054;SDS011;68452;47.186;-1.528;2023-04-15T16:09:35;4.40;;;0.30;;
79054;SDS011;68452;47.186;-1.528;2023-04-15T16:12:02;4.13;;;0.40;;
79054;SDS011;68452;47.186;-1.528;2023-04-15T16:14:28;6.90;;;0.50;;
79054;SDS011;68452;47.186;-1.528;2023-04-15T16:16:54;1.55;;;0.20;;
79054;SDS011;68452;47.186;-1.528;2023-04-15T16:19:21;3.03;;;0.30;;
79054;SDS011;68452;47.186;-1.528;2023-04-15T16:21:47;2.50;;;0.40;;
79054;SDS011;68452;47.186;-1.528;2023-04-15T16:24:13;2.60;;;0.30;;
79054;SDS011;68452;47.186;-1.528;2023-04-15T16:26:40;2.85;;;0.40;;
79054;SDS011;68452;47.186;-1.528;2023-04-15T16:29:06;3.40;;;0.40;;
79054;SDS011;68452;47.186;-1.528;2023-04-15T16:31:32;3.10;;;0.38;;
79054;SDS011;68452;47.186;-1.528;2023-04-15T16:33:59;3.45;;;0.70;;
79054;SDS011;68452;47.186;-1.528;2023-04-15T16:36:27;2.63;;;0.30;;
79054;SDS011;68452;47.186;-1.528;2023-04-15T16:38:53;1.80;;;0.30;;
79054;SDS011;68452;47.186;-1.528;2023-04-15T16:41:20;2.55;;;0.40;;
79054;SDS011;68452;47.186;-1.528;2023-04-15T16:43:46;5.18;;;0.57;;
79054;SDS011;68452;47.186;-1.528;2023-04-15T16:46:12;1.67;;;0.30;;
79054;SDS011;68452;47.186;-1.528;2023-04-15T16:48:39;2.00;;;0.30;;
79054;SDS011;68452;47.186;-1.528;2023-04-15T16:51:05;2.17;;;0.40;;
79054;SDS011;68452;47.186;-1.528;2023-04-15T16:53:31;1.10;;;0.20;;
79054;SDS011;68452;47.186;-1.528;2023-04-15T16:55:56;2.97;;;0.20;;
79054;SDS011;68452;47.186;-1.528;2023-04-15T16:58:22;2.80;;;0.43;;
79054;SDS011;68452;47.186;-1.528;2023-04-15T17:00:49;3.27;;;0.47;;
79054;SDS011;68452;47.186;-1.528;2023-04-15T17:03:15;6.03;;;0.20;;
79054;SDS011;68452;47.186;-1.528;2023-04-15T17:05:41;2.88;;;0.25;;
79054;SDS011;68452;47.186;-1.528;2023-04-15T17:08:06;3.07;;;0.23;;
79054;SDS011;68452;47.186;-1.528;2023-04-15T17:10:32;2.33;;;0.30;;
79054;SDS011;68452;47.186;-1.528;2023-04-15T17:12:58;1.73;;;0.30;;
79054;SDS011;68452;47.186;-1.528;2023-04-15T17:15:25;2.47;;;0.20;;
79054;SDS011;68452;47.186;-1.528;2023-04-15T17:17:51;2.67;;;0.50;;
79054;SDS011;68452;47.186;-1.528;2023-04-15T17:20:17;2.05;;;0.30;;
79054;SDS011;68452;47.186;-1.528;2023-04-15T17:22:43;2.05;;;0.32;;
79054;SDS011;68452;47.186;-1.528;2023-04-15T17:25:12;2.83;;;0.22;;
79054;SDS011;68452;47.186;-1.528;2023-04-15T17:27:39;1.80;;;0.20;;
79054;SDS011;68452;47.186;-1.528;2023-04-15T17:30:06;4.17;;;0.20;;
79054;SDS011;68452;47.186;-1.528;2023-04-15T17:32:32;4.43;;;0.20;;
79054;SDS011;68452;47.186;-1.528;2023-04-15T17:35:04;3.30;;;0.30;;
79054;SDS011;68452;47.186;-1.528;2023-04-15T17:37:32;1.05;;;0.20;;
79054;SDS011;68452;47.186;-1.528;2023-04-15T17:39:58;4.75;;;0.75;;
79054;SDS011;68452;47.186;-1.528;2023-04-15T17:42:24;5.10;;;0.50;;
79054;SDS011;68452;47.186;-1.528;2023-04-15T17:44:51;2.45;;;0.47;;
79054;SDS011;68452;47.186;-1.528;2023-04-15T17:47:17;4.37;;;0.30;;
79054;SDS011;68452;47.186;-1.528;2023-04-15T17:49:44;2.00;;;0.33;;
79054;SDS011;68452;47.186;-1.528;2023-04-15T17:52:11;2.38;;;0.20;;
79054;SDS011;68452;47.186;-1.528;2023-04-15T17:54:37;3.38;;;0.40;;
79054;SDS011;68452;47.186;-1.528;2023-04-15T17:57:03;3.25;;;0.20;;
79054;SDS011;68452;47.186;-1.528;2023-04-15T17:59:28;3.27;;;0.37;;
79054;SDS011;68452;47.186;-1.528;2023-04-15T18:01:57;2.45;;;0.30;;
79054;SDS011;68452;47.186;-1.528;2023-04-15T18:04:23;2.80;;;0.20;;
79054;SDS011;68452;47.186;-1.528;2023-04-15T18:06:48;1.87;;;0.20;;
79054;SDS011;68452;47.186;-1.528;2023-04-15T18:09:16;2.65;;;0.20;;
79054;SDS011;68452;47.186;-1.528;2023-04-15T18:11:42;4.15;;;0.40;;
79054;SDS011;68452;47.186;-1.528;2023-04-15T18:14:09;3.00;;;0.30;;
79054;SDS011;68452;47.186;-1.528;2023-04-15T18:16:35;3.57;;;0.30;;
79054;SDS011;68452;47.186;-1.528;2023-04-15T18:19:01;3.30;;;0.30;;
79054;SDS011;68452;47.186;-1.528;2023-04-15T18:21:26;2.53;;;0.40;;
79054;SDS011;68452;47.186;-1.528;2023-04-15T18:23:52;4.77;;;3.00;;
79054;SDS011;68452;47.186;-1.528;2023-04-15T18:26:18;4.38;;;1.73;;
79054;SDS011;68452;47.186;-1.528;2023-04-15T18:28:45;4.53;;;1.35;;
79054;SDS011;68452;47.186;-1.528;2023-04-15T18:31:11;4.93;;;0.83;;
79054;SDS011;68452;47.186;-1.528;2023-04-15T18:33:37;11.55;;;3.75;;
79054;SDS011;68452;47.186;-1.528;2023-04-15T18:36:03;7.68;;;2.67;;
79054;SDS011;68452;47.186;-1.528;2023-04-15T18:38:29;8.40;;;1.23;;
79054;SDS011;68452;47.186;-1.528;2023-04-15T18:40:55;4.40;;;0.57;;
79054;SDS011;68452;47.186;-1.528;2023-04-15T18:43:22;2.50;;;0.20;;
79054;SDS011;68452;47.186;-1.528;2023-04-15T18:45:49;3.63;;;0.30;;
79054;SDS011;68452;47.186;-1.528;2023-04-15T18:48:16;2.28;;;0.20;;
79054;SDS011;68452;47.186;-1.528;2023-04-15T18:50:42;3.47;;;0.30;;
79054;SDS011;68452;47.186;-1.528;2023-04-15T18:53:08;4.55;;;0.20;;
79054;SDS011;68452;47.186;-1.528;2023-04-15T18:55:34;2.97;;;0.35;;
79054;SDS011;68452;47.186;-1.528;2023-04-15T18:58:00;1.50;;;0.30;;
79054;SDS011;68452;47.186;-1.528;2023-04-15T19:00:26;3.17;;;0.20;;
79054;SDS011;68452;47.186;-1.528;2023-04-15T19:02:52;4.28;;;0.30;;
79054;SDS011;68452;47.186;-1.528;2023-04-15T19:05:17;3.65;;;0.28;;
79054;SDS011;68452;47.186;-1.528;2023-04-15T19:07:44;3.20;;;0.40;;
79054;SDS011;68452;47.186;-1.528;2023-04-15T19:10:10;2.42;;;0.40;;
79054;SDS011;68452;47.186;-1.528;2023-04-15T19:12:36;2.90;;;0.30;;
79054;SDS011;68452;47.186;-1.528;2023-04-15T19:15:04;4.03;;;0.30;;
79054;SDS011;68452;47.186;-1.528;2023-04-15T19:17:30;3.50;;;0.40;;
79054;SDS011;68452;47.186;-1.528;2023-04-15T19:19:57;2.60;;;0.37;;
79054;SDS011;68452;47.186;-1.528;2023-04-15T19:22:23;3.13;;;0.38;;
79054;SDS011;68452;47.186;-1.528;2023-04-15T19:24:52;2.30;;;0.40;;
79054;SDS011;68452;47.186;-1.528;2023-04-15T19:27:18;4.22;;;0.40;;
79054;SDS011;68452;47.186;-1.528;2023-04-15T19:29:44;4.33;;;0.73;;
79054;SDS011;68452;47.186;-1.528;2023-04-15T19:32:09;2.65;;;0.60;;
79054;SDS011;68452;47.186;-1.528;2023-04-15T19:34:37;2.78;;;0.50;;
79054;SDS011;68452;47.186;-1.528;2023-04-15T19:37:04;4.15;;;0.80;;
79054;SDS011;68452;47.186;-1.528;2023-04-15T19:39:29;2.50;;;0.40;;
79054;SDS011;68452;47.186;-1.528;2023-04-15T19:41:55;3.15;;;0.95;;
79054;SDS011;68452;47.186;-1.528;2023-04-15T19:44:23;2.00;;;0.40;;
79054;SDS011;68452;47.186;-1.528;2023-04-15T19:46:49;3.28;;;0.50;;
79054;SDS011;68452;47.186;-1.528;2023-04-15T19:49:17;3.73;;;0.60;;
79054;SDS011;68452;47.186;-1.528;2023-04-15T19:51:43;4.05;;;0.50;;
79054;SDS011;68452;47.186;-1.528;2023-04-15T19:54:09;6.10;;;1.15;;
79054;SDS011;68452;47.186;-1.528;2023-04-15T19:56:35;7.60;;;1.25;;
79054;SDS011;68452;47.186;-1.528;2023-04-15T19:59:01;7.40;;;1.70;;
79054;SDS011;68452;47.186;-1.528;2023-04-15T20:01:27;6.68;;;0.80;;
79054;SDS011;68452;47.186;-1.528;2023-04-15T20:03:53;3.67;;;0.60;;
79054;SDS011;68452;47.186;-1.528;2023-04-15T20:06:19;2.78;;;0.52;;
79054;SDS011;68452;47.186;-1.528;2023-04-15T20:08:45;4.10;;;0.80;;
79054;SDS011;68452;47.186;-1.528;2023-04-15T20:11:11;3.35;;;0.70;;
79054;SDS011;68452;47.186;-1.528;2023-04-15T20:13:37;5.65;;;1.02;;
79054;SDS011;68452;47.186;-1.528;2023-04-15T20:16:03;3.07;;;0.83;;
79054;SDS011;68452;47.186;-1.528;2023-04-15T20:18:31;5.35;;;0.73;;
79054;SDS011;68452;47.186;-1.528;2023-04-15T20:20:57;2.72;;;0.43;;
79054;SDS011;68452;47.186;-1.528;2023-04-15T20:23:24;4.10;;;0.43;;
79054;SDS011;68452;47.186;-1.528;2023-04-15T20:25:50;3.47;;;0.70;;
79054;SDS011;68452;47.186;-1.528;2023-04-15T20:28:17;3.43;;;0.60;;
79054;SDS011;68452;47.186;-1.528;2023-04-15T20:30:43;2.97;;;0.52;;
79054;SDS011;68452;47.186;-1.528;2023-04-15T20:33:11;4.80;;;0.70;;
79054;SDS011;68452;47.186;-1.528;2023-04-15T20:35:38;4.20;;;0.70;;
79054;SDS011;68452;47.186;-1.528;2023-04-15T20:38:04;4.18;;;0.82;;
79054;SDS011;68452;47.186;-1.528;2023-04-15T20:40:30;3.60;;;0.40;;
79054;SDS011;68452;47.186;-1.528;2023-04-15T20:42:58;3.70;;;0.47;;
79054;SDS011;68452;47.186;-1.528;2023-04-15T20:45:24;2.45;;;0.30;;
79054;SDS011;68452;47.186;-1.528;2023-04-15T20:47:50;4.43;;;0.50;;
79054;SDS011;68452;47.186;-1.528;2023-04-15T20:50:19;4.20;;;0.40;;
79054;SDS011;68452;47.186;-1.528;2023-04-15T20:52:45;4.73;;;0.60;;
79054;SDS011;68452;47.186;-1.528;2023-04-15T20:55:11;4.28;;;0.60;;
79054;SDS011;68452;47.186;-1.528;2023-04-15T20:57:38;3.75;;;0.50;;
79054;SDS011;68452;47.186;-1.528;2023-04-15T21:00:05;3.60;;;0.50;;
79054;SDS011;68452;47.186;-1.528;2023-04-15T21:02:33;4.07;;;0.47;;
79054;SDS011;68452;47.186;-1.528;2023-04-15T21:04:59;3.87;;;0.50;;
79054;SDS011;68452;47.186;-1.528;2023-04-15T21:07:26;4.85;;;0.40;;
79054;SDS011;68452;47.186;-1.528;2023-04-15T21:09:51;3.28;;;0.40;;
79054;SDS011;68452;47.186;-1.528;2023-04-15T21:12:19;4.03;;;0.40;;
79054;SDS011;68452;47.186;-1.528;2023-04-15T21:14:45;3.33;;;0.30;;
79054;SDS011;68452;47.186;-1.528;2023-04-15T21:17:11;3.78;;;0.30;;
79054;SDS011;68452;47.186;-1.528;2023-04-15T21:19:37;3.15;;;0.40;;
79054;SDS011;68452;47.186;-1.528;2023-04-15T21:22:04;5.07;;;0.90;;
79054;SDS011;68452;47.186;-1.528;2023-04-15T21:24:30;3.60;;;0.40;;
79054;SDS011;68452;47.186;-1.528;2023-04-15T21:26:56;4.13;;;0.70;;
79054;SDS011;68452;47.186;-1.528;2023-04-15T21:29:22;3.63;;;0.50;;
79054;SDS011;68452;47.186;-1.528;2023-04-15T21:31:48;4.30;;;0.43;;
79054;SDS011;68452;47.186;-1.528;2023-04-15T21:34:15;2.20;;;0.30;;
79054;SDS011;68452;47.186;-1.528;2023-04-15T21:36:41;2.88;;;0.40;;
79054;SDS011;68452;47.186;-1.528;2023-04-15T21:39:07;4.30;;;0.50;;
79054;SDS011;68452;47.186;-1.528;2023-04-15T21:41:33;2.00;;;0.30;;
79054;SDS011;68452;47.186;-1.528;2023-04-15T21:44:00;4.05;;;0.52;;
79054;SDS011;68452;47.186;-1.528;2023-04-15T21:46:27;3.10;;;0.50;;
79054;SDS011;68452;47.186;-1.528;2023-04-15T21:48:53;3.65;;;0.60;;
79054;SDS011;68452;47.186;-1.528;2023-04-15T21:51:19;2.88;;;0.32;;
79054;SDS011;68452;47.186;-1.528;2023-04-15T21:53:45;3.95;;;0.70;;
79054;SDS011;68452;47.186;-1.528;2023-04-15T21:56:11;3.00;;;0.93;;
79054;SDS011;68452;47.186;-1.528;2023-04-15T21:58:37;3.93;;;0.70;;
79054;SDS011;68452;47.186;-1.528;2023-04-15T22:01:03;4.75;;;0.50;;
79054;SDS011;68452;47.186;-1.528;2023-04-15T22:03:30;5.47;;;0.82;;
79054;SDS011;68452;47.186;-1.528;2023-04-15T22:05:58;4.22;;;0.60;;
79054;SDS011;68452;47.186;-1.528;2023-04-15T22:08:24;2.17;;;0.53;;
79054;SDS011;68452;47.186;-1.528;2023-04-15T22:10:50;4.80;;;0.75;;
79054;SDS011;68452;47.186;-1.528;2023-04-15T22:13:16;6.38;;;0.63;;
79054;SDS011;68452;47.186;-1.528;2023-04-15T22:15:42;4.70;;;0.53;;
79054;SDS011;68452;47.186;-1.528;2023-04-15T22:18:07;4.97;;;0.63;;
79054;SDS011;68452;47.186;-1.528;2023-04-15T22:20:35;5.18;;;0.60;;
79054;SDS011;68452;47.186;-1.528;2023-04-15T22:23:01;3.63;;;0.57;;
79054;SDS011;68452;47.186;-1.528;2023-04-15T22:25:31;3.60;;;0.60;;
79054;SDS011;68452;47.186;-1.528;2023-04-15T22:27:58;3.47;;;0.60;;
79054;SDS011;68452;47.186;-1.528;2023-04-15T22:30:24;3.90;;;1.13;;
79054;SDS011;68452;47.186;-1.528;2023-04-15T22:32:50;2.63;;;0.70;;
79054;SDS011;68452;47.186;-1.528;2023-04-15T22:35:15;4.17;;;1.07;;
79054;SDS011;68452;47.186;-1.528;2023-04-15T22:37:41;5.28;;;0.50;;
79054;SDS011;68452;47.186;-1.528;2023-04-15T22:40:07;3.40;;;0.65;;
79054;SDS011;68452;47.186;-1.528;2023-04-15T22:42:34;6.20;;;0.80;;
79054;SDS011;68452;47.186;-1.528;2023-04-15T22:44:59;4.50;;;0.90;;
79054;SDS011;68452;47.186;-1.528;2023-04-15T22:47:25;5.28;;;1.05;;
79054;SDS011;68452;47.186;-1.528;2023-04-15T22:49:51;5.90;;;0.80;;
79054;SDS011;68452;47.186;-1.528;2023-04-15T22:52:17;5.47;;;1.10;;
79054;SDS011;68452;47.186;-1.528;2023-04-15T22:54:43;5.45;;;1.08;;
79054;SDS011;68452;47.186;-1.528;2023-04-15T22:57:09;6.70;;;0.80;;
79054;SDS011;68452;47.186;-1.528;2023-04-15T22:59:35;8.37;;;1.20;;
79054;SDS011;68452;47.186;-1.528;2023-04-15T23:02:01;4.97;;;1.10;;
79054;SDS011;68452;47.186;-1.528;2023-04-15T23:04:27;7.80;;;1.73;;
79054;SDS011;68452;47.186;-1.528;2023-04-15T23:06:53;7.05;;;1.98;;
79054;SDS011;68452;47.186;-1.528;2023-04-15T23:09:19;4.65;;;1.05;;
79054;SDS011;68452;47.186;-1.528;2023-04-15T23:11:46;6.20;;;1.40;;
79054;SDS011;68452;47.186;-1.528;2023-04-15T23:14:11;7.60;;;1.70;;
79054;SDS011;68452;47.186;-1.528;2023-04-15T23:16:37;18.63;;;8.10;;
79054;SDS011;68452;47.186;-1.528;2023-04-15T23:19:03;10.75;;;3.47;;
79054;SDS011;68452;47.186;-1.528;2023-04-15T23:21:29;6.17;;;1.93;;
79054;SDS011;68452;47.186;-1.528;2023-04-15T23:23:55;5.68;;;2.20;;
79054;SDS011;68452;47.186;-1.528;2023-04-15T23:26:21;6.97;;;2.33;;
79054;SDS011;68452;47.186;-1.528;2023-04-15T23:28:46;7.97;;;2.63;;
79054;SDS011;68452;47.186;-1.528;2023-04-15T23:31:12;8.52;;;2.83;;
79054;SDS011;68452;47.186;-1.528;2023-04-15T23:33:38;9.33;;;5.13;;
79054;SDS011;68452;47.186;-1.528;2023-04-15T23:36:04;10.33;;;3.37;;
79054;SDS011;68452;47.186;-1.528;2023-04-15T23:38:30;9.25;;;2.40;;
79054;SDS011;68452;47.186;-1.528;2023-04-15T23:40:56;7.57;;;2.50;;
79054;SDS011;68452;47.186;-1.528;2023-04-15T23:43:22;6.77;;;2.27;;
79054;SDS011;68452;47.186;-1.528;2023-04-15T23:45:48;7.47;;;2.60;;
79054;SDS011;68452;47.186;-1.528;2023-04-15T23:48:14;8.40;;;2.58;;
79054;SDS011;68452;47.186;-1.528;2023-04-15T23:50:40;8.30;;;2.63;;
79054;SDS011;68452;47.186;-1.528;2023-04-15T23:53:05;8.50;;;2.33;;
79054;SDS011;68452;47.186;-1.528;2023-04-15T23:55:31;11.00;;;2.10;;
79054;SDS011;68452;47.186;-1.528;2023-04-15T23:57:57;6.13;;;1.80;;
